Flight Track Log - Related Links

Times and Time Zones

All times are in EDT time to prevent confusion due to time zone crossing. See the SWA407 flight status page for this flight to view local times or setup timezone preferences in your user account.


Time Position Orientation Groundspeed Altitude Reporting Facility
EDT Latitude Longitude Course Direction KTS MPH feet Rate Location/Type
Sun 07:05:38 PM 33.6667 -84.3333 51° Northeast 216 249 3,400  Level Atlanta TRACON
Sun 07:06:38 PM 33.7000 -84.2833 51° Northeast 284 327 5,600 2,600 Climbing Atlanta TRACON
Sun 07:07:38 PM 33.7833 -84.2833 360° North 295 339 8,600 2,467 Climbing Atlanta TRACON
Sun 07:09:55 PM 33.8081 -84.5139 277° West 318 366 13,700 2,315 Climbing Atlanta Center
Sun 07:10:55 PM 33.8136 -84.6339 273° West 346 398 16,200 2,350 Climbing Atlanta Center
Sun 07:11:55 PM 33.8108 -84.7539 268° West 351 404 18,400 2,100 Climbing Atlanta Center
Sun 07:12:55 PM 33.8061 -84.8714 267° West 379 436 20,400 2,050 Climbing Atlanta Center
Sun 07:13:55 PM 33.7967 -84.9961 265° West 394 453 22,500 1,950 Climbing Atlanta Center
Sun 07:14:55 PM 33.7789 -85.1311 261° West 399 459 24,300 1,850 Climbing Atlanta Center
Sun 07:15:55 PM 33.7736 -85.2633 267° West 399 459 26,200 1,750 Climbing Atlanta Center
Sun 07:16:55 PM 33.7969 -85.4136 281° West 405 466 27,800 1,650 Climbing Atlanta Center
Sun 07:17:55 PM 33.8225 -85.5517 283° West 413 475 29,500 1,600 Climbing Atlanta Center
Sun 07:18:55 PM 33.8500 -85.6847 284° West 413 475 31,000 1,400 Climbing Atlanta Center
Sun 07:19:55 PM 33.8900 -85.8106 291° West 418 481 32,300 1,350 Climbing Atlanta Center
Sun 07:20:55 PM 33.9339 -85.9442 292° West 418 481 33,700 1,500 Climbing Atlanta Center
Sun 07:21:55 PM 33.9758 -86.0753 291° West 418 481 35,300 1,150 Climbing Atlanta Center
Sun 07:22:55 PM 34.0131 -86.2067 289° West 418 481 36,000 350 Climbing Atlanta Center
Sun 07:23:55 PM 34.0483 -86.3353 288° West 418 481 36,000  Level Atlanta Center
Sun 07:24:55 PM 34.0856 -86.4667 289° West 413 475 36,000  Level Atlanta Center
Sun 07:26:33 PM 34.1433 -86.6831 288° West 430 495 36,000  Level Memphis Center
Sun 07:27:33 PM 34.1825 -86.8144 290° West 423 487 36,000  Level Memphis Center
Sun 07:28:33 PM 34.2156 -86.9486 287° West 418 481 36,000  Level Memphis Center
Sun 07:29:33 PM 34.2525 -87.0806 289° West 419 482 36,000  Level Memphis Center
Sun 07:30:33 PM 34.2914 -87.2147 289° West 417 480 36,000  Level Memphis Center
Sun 07:31:33 PM 34.3236 -87.3317 288° West 401 461 36,000  Level Memphis Center
Sun 07:32:33 PM 34.3600 -87.4636 289° West 407 468 36,000  Level Memphis Center
Sun 07:33:33 PM 34.3986 -87.5983 289° West 417 480 36,000  Level Memphis Center
Sun 07:34:33 PM 34.4328 -87.7308 287° West 417 480 36,000  Level Memphis Center
Sun 07:35:33 PM 34.4667 -87.8481 289° West 417 480 36,000  Level Memphis Center
Sun 07:36:33 PM 34.5006 -87.9831 287° West 417 480 36,000  Level Memphis Center
Sun 07:37:33 PM 34.5364 -88.1133 288° West 417 480 36,000  Level Memphis Center
Sun 07:38:33 PM 34.5722 -88.2536 287° West 418 481 36,000  Level Memphis Center
Sun 07:39:33 PM 34.6078 -88.3864 288° West 424 488 36,000  Level Memphis Center
Sun 07:40:33 PM 34.6408 -88.5119 288° West 412 474 36,000  Level Memphis Center
Sun 07:41:33 PM 34.6742 -88.6450 287° West 412 474 36,000  Level Memphis Center
Sun 07:42:33 PM 34.7136 -88.7908 288° West 412 474 36,000  Level Memphis Center
Sun 07:43:33 PM 34.7486 -88.9239 288° West 417 480 36,000  Level Memphis Center
Sun 07:44:33 PM 34.7836 -89.0600 287° West 422 486 36,000  Level Memphis Center
Sun 07:45:33 PM 34.8183 -89.1936 288° West 422 486 36,000  Level Memphis Center
Sun 07:46:33 PM 34.8550 -89.3272 289° West 415 478 36,000  Level Memphis Center
Sun 07:47:33 PM 34.9225 -89.4478 304° West 422 486 36,000  Level Memphis Center
Sun 07:48:33 PM 34.9944 -89.5661 307° West 435 501 36,000  Level Memphis Center
Sun 07:49:33 PM 35.0847 -89.6694 317° Northwest 441 507 36,000  Level Memphis Center
Sun 07:50:33 PM 35.1728 -89.7728 316° Northwest 436 502 36,000  Level Memphis Center
Sun 07:51:33 PM 35.2608 -89.8714 318° Northwest 436 502 36,000  Level Memphis Center
Sun 07:52:33 PM 35.3489 -89.9700 318° Northwest 428 493 36,000  Level Memphis Center
Sun 07:53:33 PM 35.4389 -90.0692 318° Northwest 422 486 36,000  Level Memphis Center
Sun 07:54:33 PM 35.4975 -90.1886 301° West 417 480 36,000  Level Memphis Center
Sun 07:55:33 PM 35.5267 -90.3289 284° West 418 481 36,000  Level Memphis Center
Sun 07:56:33 PM 35.5581 -90.4667 286° West 418 481 36,000  Level Memphis Center
Sun 07:57:33 PM 35.5892 -90.6047 286° West 424 488 36,000  Level Memphis Center
Sun 07:58:33 PM 35.6158 -90.7300 285° West 424 488 36,000  Level Memphis Center
Sun 07:59:33 PM 35.6447 -90.8681 284° West 424 488 36,000  Level Memphis Center
Sun 08:00:33 PM 35.6753 -91.0086 285° West 424 488 36,000  Level Memphis Center
Sun 08:01:33 PM 35.7036 -91.1597 283° West 417 480 36,000  Level Memphis Center
Sun 08:02:33 PM 35.7297 -91.2956 283° West 412 474 36,000  Level Memphis Center
Sun 08:03:33 PM 35.7622 -91.4214 288° West 417 480 36,000  Level Memphis Center
Sun 08:04:33 PM 35.7900 -91.5625 284° West 417 480 36,000  Level Memphis Center
Sun 08:05:33 PM 35.8200 -91.7036 285° West 417 480 36,000  Level Memphis Center
Sun 08:06:33 PM 35.8494 -91.8450 284° West 417 480 36,000  Level Memphis Center
Sun 08:07:33 PM 35.8792 -91.9864 285° West 422 486 36,000  Level Memphis Center
Sun 08:08:33 PM 35.9083 -92.1306 284° West 427 491 36,000  Level Memphis Center
Sun 08:09:33 PM 35.9375 -92.2694 285° West 427 491 36,000  Level Memphis Center
Sun 08:10:33 PM 35.9667 -92.4139 284° West 427 491 36,000  Level Memphis Center
Sun 08:11:33 PM 35.9956 -92.5556 284° West 427 491 36,000  Level Memphis Center
Sun 08:12:33 PM 36.0242 -92.7003 284° West 432 497 36,000  Level Memphis Center
Sun 08:13:33 PM 36.0506 -92.8422 283° West 432 497 36,000  Level Memphis Center
Sun 08:14:33 PM 36.0811 -92.9817 285° West 432 497 36,000  Level Memphis Center
Sun 08:15:33 PM 36.1069 -93.1342 282° West 439 505 36,000  Level Memphis Center
Sun 08:16:33 PM 36.1350 -93.2789 284° West 432 497 36,000  Level Memphis Center
Sun 08:17:33 PM 36.1628 -93.4214 284° West 432 497 36,000  Level Memphis Center
Sun 08:18:33 PM 36.1925 -93.5692 284° West 437 503 36,000  Level Memphis Center
Sun 08:19:33 PM 36.2194 -93.7297 282° West 432 497 36,000  Level Memphis Center
Sun 08:20:33 PM 36.2467 -93.8747 283° West 432 497 36,000  Level Memphis Center
Sun 08:23:04 PM 36.3175 -94.2289 284° West 439 505 36,000  Level Kansas City Center
Sun 08:24:06 PM 36.3453 -94.3769 283° West 439 505 36,000  Level Kansas City Center
Sun 08:25:08 PM 36.3725 -94.5236 283° West 438 504 36,000  Level Kansas City Center
Sun 08:26:10 PM 36.4036 -94.7000 282° West 436 502 36,000  Level Kansas City Center
Sun 08:27:12 PM 36.4294 -94.8464 282° West 435 501 36,000 435 Level Kansas City Center
Sun 08:28:14 PM 36.4564 -94.9933 283° West 436 502 36,900 968 Climbing Kansas City Center
Sun 08:29:16 PM 36.4850 -95.1544 283° West 436 502 38,000 532 Climbing Kansas City Center
Sun 08:30:18 PM 36.5108 -95.3000 282° West 434 499 38,000  Level Kansas City Center
Sun 08:31:20 PM 36.5372 -95.4472 283° West 436 502 38,000  Level Kansas City Center
Sun 08:32:22 PM 36.5622 -95.5939 282° West 437 503 38,000  Level Kansas City Center
Sun 08:33:24 PM 36.5875 -95.7406 282° West 436 502 38,000  Level Kansas City Center
Sun 08:34:26 PM 36.6142 -95.8958 282° West 436 502 38,000  Level Kansas City Center
Sun 08:35:28 PM 36.6386 -96.0406 282° West 432 497 38,000  Level Kansas City Center
Sun 08:36:30 PM 36.6686 -96.2183 282° West 435 501 38,000  Level Kansas City Center
Sun 08:37:32 PM 36.6931 -96.3658 282° West 435 501 38,000  Level Kansas City Center
Sun 08:38:34 PM 36.7178 -96.5131 282° West 434 499 38,000  Level Kansas City Center
Sun 08:39:36 PM 36.7419 -96.6594 282° West 433 498 38,000  Level Kansas City Center
Sun 08:40:37 PM 36.7647 -96.8058 281° West 431 496 38,000  Level Kansas City Center
Sun 08:41:39 PM 36.7886 -96.9517 282° West 430 495 38,000  Level Kansas City Center
Sun 08:42:41 PM 36.8147 -97.1122 282° West 428 493 38,000  Level Kansas City Center
Sun 08:43:43 PM 36.8372 -97.2553 281° West 426 490 38,000  Level Kansas City Center
Sun 08:44:45 PM 36.8594 -97.4042 281° West 427 491 38,000  Level Kansas City Center
Sun 08:45:47 PM 36.8817 -97.5519 281° West 430 495 38,000  Level Kansas City Center
Sun 08:46:49 PM 36.9042 -97.6953 281° West 426 490 38,000  Level Kansas City Center
Sun 08:47:50 PM 36.9258 -97.8378 281° West 420 483 38,000  Level Kansas City Center
Sun 08:48:52 PM 36.9519 -98.0117 281° West 422 486 38,000  Level Kansas City Center
Sun 08:49:54 PM 36.9744 -98.1581 281° West 425 489 38,000  Level Kansas City Center
Sun 08:50:56 PM 36.9956 -98.3042 280° West 426 490 38,000  Level Kansas City Center
Sun 08:51:57 PM 37.0197 -98.4636 281° West 428 493 38,000  Level Kansas City Center
Sun 08:52:59 PM 37.0414 -98.6119 280° West 430 495 38,000  Level Kansas City Center
Sun 08:54:01 PM 37.0628 -98.7578 280° West 428 493 38,000  Level Kansas City Center
Sun 08:55:02 PM 37.0814 -98.8911 280° West 425 489 38,000  Level Kansas City Center
Sun 08:56:04 PM 37.1017 -99.0367 280° West 424 488 38,000  Level Kansas City Center
Sun 08:57:06 PM 37.1231 -99.1908 280° West 422 486 38,000  Level Kansas City Center
Sun 08:58:08 PM 37.1442 -99.3386 280° West 426 490 38,000  Level Kansas City Center
Sun 08:59:09 PM 37.1683 -99.5122 280° West 427 491 38,000  Level Kansas City Center
Sun 09:00:11 PM 37.1875 -99.6531 280° West 429 494 38,000  Level Kansas City Center
Sun 09:01:13 PM 37.2064 -99.7956 279° West 431 496 38,000  Level Kansas City Center
Sun 09:02:14 PM 37.2283 -99.9606 280° West 430 495 38,000  Level Kansas City Center
Sun 09:03:16 PM 37.2478 -100.1022 280° West 430 495 38,000  Level Kansas City Center
Sun 09:04:17 PM 37.2694 -100.2658 279° West 428 493 38,000  Level Kansas City Center
Sun 09:05:19 PM 37.2881 -100.4072 279° West 427 491 38,000  Level Kansas City Center
Sun 09:06:20 PM 37.3092 -100.5706 279° West 424 488 38,000  Level Kansas City Center
Sun 09:07:22 PM 37.3275 -100.7100 279° West 422 486 38,000  Level Kansas City Center
Sun 09:08:24 PM 37.3450 -100.8511 279° West 423 487 38,000  Level Kansas City Center
Sun 09:09:25 PM 37.3650 -101.0169 279° West 425 489 38,000  Level Kansas City Center
Sun 09:10:27 PM 37.3828 -101.1592 279° West 427 491 38,000  Level Kansas City Center
Sun 09:11:28 PM 37.4003 -101.3003 279° West 426 490 38,000  Level Kansas City Center
Sun 09:12:30 PM 37.4194 -101.4639 278° West 423 487 38,000  Level Kansas City Center
Sun 09:13:31 PM 37.4367 -101.6039 279° West 423 487 38,000  Level Kansas City Center
Sun 09:14:33 PM 37.4561 -101.7658 279° West 420 483 38,000  Level Kansas City Center
Sun 09:15:35 PM 37.4717 -101.9025 278° West 416 479 38,000  Level Kansas City Center
Sun 09:16:01 PM 37.4808 -101.9725 279° West 415 478 38,000  Level Denver Center
Sun 09:17:38 PM 37.5061 -102.2006 278° West 415 478 38,000  Level Kansas City Center
Sun 09:18:05 PM 37.5153 -102.2706 279° West 415 478 38,000  Level Denver Center
Sun 09:19:07 PM 37.5300 -102.4092 278° West 417 480 38,000  Level Denver Center
Sun 09:20:08 PM 37.5464 -102.5506 278° West 418 481 38,000  Level Denver Center
Sun 09:21:10 PM 37.5633 -102.7131 278° West 419 482 38,000  Level Denver Center
Sun 09:22:12 PM 37.5789 -102.8514 278° West 418 481 38,000  Level Denver Center
Sun 09:23:14 PM 37.5964 -103.0147 278° West 419 482 38,000  Level Denver Center
Sun 09:24:15 PM 37.6311 -103.1478 288° West 416 479 38,000  Level Denver Center
Sun 09:25:17 PM 37.6719 -103.3028 288° West 418 481 38,000  Level Denver Center
Sun 09:26:19 PM 37.7064 -103.4356 288° West 417 480 38,000  Level Denver Center
Sun 09:27:21 PM 37.7486 -103.5878 289° West 414 476 38,000  Level Denver Center
Sun 09:28:22 PM 37.7853 -103.7172 290° West 412 474 38,000  Level Denver Center
Sun 09:29:25 PM 37.8217 -103.8475 290° West 413 475 38,000  Level Denver Center
Sun 09:30:26 PM 37.8644 -104.0000 290° West 416 479 38,000  Level Denver Center
Sun 09:31:28 PM 37.9067 -104.1531 289° West 417 480 38,000  Level Denver Center
Sun 09:32:30 PM 37.9442 -104.2856 290° West 419 482 38,000  Level Denver Center
Sun 09:33:32 PM 37.9847 -104.4392 289° West 414 476 38,000  Level Denver Center
Sun 09:34:33 PM 37.9947 -104.5767 275° West 411 473 38,000  Level Denver Center
Sun 09:35:35 PM 38.0050 -104.7139 275° West 408 470 38,000  Level Denver Center
Sun 09:36:37 PM 38.0158 -104.8761 275° West 414 476 38,000  Level Denver Center
Sun 09:37:39 PM 38.0244 -105.0167 274° West 417 480 38,000  Level Denver Center
Sun 09:38:41 PM 38.0353 -105.1825 275° West 423 487 38,000  Level Denver Center
Sun 09:39:42 PM 38.0444 -105.3211 275° West 416 479 38,000  Level Denver Center
Sun 09:40:44 PM 38.0528 -105.4856 274° West 416 479 38,000  Level Denver Center
Sun 09:41:46 PM 38.0617 -105.6247 275° West 416 479 38,000  Level Denver Center
Sun 09:42:48 PM 38.0708 -105.7869 274° West 415 478 38,000  Level Denver Center
Sun 09:43:50 PM 38.0783 -105.9264 274° West 414 476 38,000  Level Denver Center
Sun 09:44:52 PM 38.0867 -106.0667 274° West 417 480 38,000  Level Denver Center
Sun 09:45:53 PM 38.0956 -106.2289 274° West 419 482 38,000  Level Denver Center
Sun 09:46:55 PM 38.1028 -106.3733 274° West 412 474 38,000  Level Denver Center
Sun 09:47:57 PM 38.1108 -106.5289 274° West 410 472 38,000  Level Denver Center
Sun 09:48:59 PM 38.1178 -106.6686 274° West 412 474 38,000  Level Denver Center
Sun 09:50:01 PM 38.1267 -106.8314 274° West 413 475 38,000  Level Denver Center
Sun 09:51:03 PM 38.1311 -106.9592 273° West 420 483 38,000  Level Denver Center
Sun 09:52:04 PM 38.1400 -107.1356 274° West 417 480 38,000  Level Denver Center
Sun 09:53:06 PM 38.1467 -107.2775 273° West 416 479 38,000  Level Denver Center
Sun 09:54:08 PM 38.1539 -107.4400 273° West 413 475 38,000  Level Denver Center
Sun 09:55:10 PM 38.1597 -107.5800 273° West 414 476 38,000  Level Denver Center
Sun 09:56:12 PM 38.1653 -107.7194 273° West 414 476 38,000  Level Denver Center
Sun 09:57:14 PM 38.1722 -107.8828 273° West 414 476 38,000  Level Denver Center
Sun 09:58:15 PM 38.1775 -108.0239 273° West 416 479 38,000  Level Denver Center
Sun 09:59:17 PM 38.1839 -108.1878 273° West 416 479 38,000  Level Denver Center
Sun 10:00:19 PM 38.1886 -108.3283 272° West 415 478 38,000  Level Denver Center
Sun 10:01:21 PM 38.1944 -108.4942 273° West 419 482 38,000  Level Denver Center
Sun 10:02:23 PM 38.1992 -108.6328 273° West 412 474 38,000  Level Denver Center
Sun 10:03:24 PM 38.2036 -108.7761 272° West 420 483 38,000  Level Denver Center
Sun 10:04:26 PM 38.2094 -108.9389 273° West 414 476 38,000  Level Denver Center
Sun 10:05:28 PM 38.2142 -109.0797 272° West 415 478 38,000  Level Denver Center
Sun 10:06:30 PM 38.2181 -109.2422 272° West 412 474 38,000  Level Denver Center
Sun 10:07:32 PM 38.2217 -109.3828 272° West 412 474 38,000  Level Denver Center
Sun 10:08:33 PM 38.2261 -109.5478 272° West 417 480 38,000  Level Denver Center
Sun 10:09:35 PM 38.2294 -109.6869 272° West 413 475 38,000  Level Denver Center
Sun 10:10:37 PM 38.2342 -109.8253 273° West 410 472 38,000  Level Denver Center
Sun 10:11:39 PM 38.2364 -109.9878 271° West 411 473 38,000  Level Denver Center
Sun 10:12:41 PM 38.2392 -110.1256 272° West 408 470 38,000  Level Denver Center
Sun 10:13:42 PM 38.2433 -110.2867 272° West 407 468 38,000  Level Denver Center
Sun 10:14:44 PM 38.2453 -110.4250 271° West 408 470 38,000  Level Denver Center
Sun 10:15:46 PM 38.2500 -110.5881 272° West 412 474 38,000  Level Denver Center
Sun 10:16:26 PM 38.2514 -110.6817 271° West 412 474 38,000  Level Salt Lake Center
Sun 10:17:27 PM 38.2536 -110.8228 271° West 415 478 38,000  Level Salt Lake Center
Sun 10:18:29 PM 38.2558 -110.9619 271° West 418 481 38,000  Level Salt Lake Center
Sun 10:19:30 PM 38.2572 -111.1392 271° West 419 482 38,000  Level Salt Lake Center
Sun 10:20:31 PM 38.2589 -111.2881 271° West 422 486 38,000  Level Salt Lake Center
Sun 10:21:33 PM 38.2603 -111.4353 271° West 420 483 38,000  Level Salt Lake Center
Sun 10:22:34 PM 38.2614 -111.5814 271° West 415 478 38,000  Level Salt Lake Center
Sun 10:23:35 PM 38.2633 -111.7269 271° West 414 476 38,000  Level Salt Lake Center
Sun 10:24:37 PM 38.2642 -111.8717 270° West 411 473 38,000  Level Salt Lake Center
Sun 10:25:38 PM 38.2653 -112.0169 271° West 412 474 38,000  Level Salt Lake Center
Sun 10:26:39 PM 38.2653 -112.1619 270° West 412 474 38,000  Level Salt Lake Center
Sun 10:27:41 PM 38.2658 -112.3358 270° West 412 474 38,000  Level Salt Lake Center
Sun 10:28:42 PM 38.2658 -112.4811 270° West 413 475 38,000  Level Salt Lake Center
Sun 10:29:43 PM 38.2653 -112.6244 270° West 409 471 38,000  Level Salt Lake Center
Sun 10:30:45 PM 38.2650 -112.7681 270° West 409 471 38,000  Level Salt Lake Center
Sun 10:31:46 PM 38.2650 -112.9106 270° West 407 468 38,000  Level Salt Lake Center
Sun 10:32:47 PM 38.2644 -113.0544 270° West 409 471 38,000  Level Salt Lake Center
Sun 10:33:49 PM 38.2633 -113.1956 269° West 404 465 38,000  Level Salt Lake Center
Sun 10:34:50 PM 38.2625 -113.3381 270° West 405 466 38,000  Level Salt Lake Center
Sun 10:35:51 PM 38.2611 -113.5111 269° West 408 470 38,000  Level Salt Lake Center
Sun 10:36:53 PM 38.2600 -113.6569 269° West 413 475 38,000  Level Salt Lake Center
Sun 10:37:54 PM 38.2589 -113.8014 269° West 412 474 38,000  Level Salt Lake Center
Sun 10:38:56 PM 38.2564 -113.9475 269° West 414 476 38,000  Level Salt Lake Center
Sun 10:39:57 PM 38.2550 -114.0922 269° West 412 474 38,000  Level Salt Lake Center
Sun 10:40:58 PM 38.2531 -114.2381 269° West 413 475 38,000  Level Salt Lake Center
Sun 10:42:00 PM 38.2494 -114.3833 268° West 413 475 38,000  Level Salt Lake Center
Sun 10:43:01 PM 38.2453 -114.5286 268° West 413 475 38,000  Level Salt Lake Center
Sun 10:44:02 PM 38.2389 -114.7044 267° West 419 482 38,000  Level Salt Lake Center
Sun 10:45:04 PM 38.2336 -114.8500 267° West 415 478 38,000  Level Salt Lake Center
Sun 10:46:05 PM 38.2292 -114.9928 268° West 409 471 38,000  Level Salt Lake Center
Sun 10:47:06 PM 38.2233 -115.1383 267° West 411 473 38,000  Level Salt Lake Center
Sun 10:48:08 PM 38.2167 -115.2844 267° West 414 476 38,000  Level Salt Lake Center
Sun 10:49:09 PM 38.2108 -115.4350 267° West 423 487 38,000  Level Salt Lake Center
Sun 10:50:10 PM 38.2044 -115.5833 267° West 422 486 38,000  Level Salt Lake Center
Sun 10:51:12 PM 38.1981 -115.7303 267° West 418 481 38,000  Level Salt Lake Center
Sun 10:52:13 PM 38.1911 -115.8769 267° West 418 481 38,000  Level Salt Lake Center
Sun 10:53:14 PM 38.1822 -116.0553 266° West 418 481 38,000  Level Salt Lake Center
Sun 10:54:16 PM 38.1753 -116.2039 267° West 420 483 38,000  Level Salt Lake Center
Sun 10:55:17 PM 38.1683 -116.3536 267° West 425 489 38,000  Level Salt Lake Center
Sun 10:55:41 PM 38.1656 -116.4156 267° West 430 495 38,000  Level Oakland Center
Sun 10:56:42 PM 38.1575 -116.5661 266° West 428 493 38,000  Level Oakland Center
Sun 10:57:43 PM 38.1497 -116.7181 266° West 431 496 38,000  Level Oakland Center
Sun 10:58:44 PM 38.1419 -116.8678 266° West 427 491 38,000  Level Oakland Center
Sun 10:59:22 PM 38.1369 -116.9575 266° West 428 493 38,000  Level Salt Lake Center
Sun 11:00:23 PM 38.1289 -117.1053 266° West 420 483 38,000  Level Salt Lake Center
Sun 11:00:46 PM 38.1267 -117.1597 267° West 420 483 38,000  Level Oakland Center
Sun 11:01:47 PM 38.1108 -117.3086 262° West 420 483 38,000  Level Oakland Center
Sun 11:02:48 PM 38.0736 -117.4714 254° West 425 489 38,000  Level Oakland Center
Sun 11:03:49 PM 38.0397 -117.6144 253° West 424 488 38,000  Level Oakland Center
Sun 11:04:50 PM 38.0056 -117.7611 254° West 430 495 38,000  Level Oakland Center
Sun 11:05:51 PM 37.9886 -117.9111 262° West 430 495 38,000  Level Oakland Center
Sun 11:06:52 PM 37.9722 -118.0622 262° West 431 496 38,000  Level Oakland Center
Sun 11:07:54 PM 37.9564 -118.2103 262° West 426 490 38,000  Level Oakland Center
Sun 11:08:55 PM 37.9408 -118.3592 262° West 426 490 38,000  Level Oakland Center
Sun 11:09:56 PM 37.9239 -118.5086 262° West 427 491 38,000  Level Oakland Center
Sun 11:10:57 PM 37.9078 -118.6581 262° West 428 493 38,000  Level Oakland Center
Sun 11:11:58 PM 37.8914 -118.8083 262° West 431 496 38,000  Level Oakland Center
Sun 11:12:59 PM 37.8697 -118.9906 261° West 435 501 38,000  Level Oakland Center
Sun 11:14:00 PM 37.8531 -119.1425 262° West 438 504 38,000 -148 Level Oakland Center
Sun 11:15:01 PM 37.8342 -119.2928 261° West 435 501 37,700 -639 Descending Oakland Center
Sun 11:16:02 PM 37.8167 -119.4447 262° West 436 502 36,700 -1,180 Descending Oakland Center
Sun 11:17:03 PM 37.8033 -119.5917 263° West 426 490 35,300 -1,785 Descending Oakland Center
Sun 11:18:03 PM 37.7842 -119.7439 261° West 433 498 33,100 -1,934 Descending Oakland Center
Sun 11:19:04 PM 37.7625 -119.9000 260° West 446 513 31,400 -1,377 Descending Oakland Center
Sun 11:20:05 PM 37.7433 -120.0542 261° West 443 510 30,300 -1,082 Descending Oakland Center
Sun 11:21:06 PM 37.7253 -120.1992 261° West 423 487 29,200 -1,033 Descending Oakland Center
Sun 11:22:07 PM 37.7078 -120.3425 261° West 413 475 28,200 -984 Descending Oakland Center
Sun 11:23:08 PM 37.6892 -120.4819 260° West 405 466 27,200 -1,033 Descending Oakland Center
Sun 11:24:09 PM 37.6722 -120.6208 261° West 400 460 26,100 -1,432 Descending Oakland Center
Sun 11:24:36 PM 37.6667 -120.7000 265° West 393 452 25,100 -2,065 Descending Northern Cal TRACON
Sun 11:25:42 PM 37.6500 -120.8500 262° West 378 435 22,900 -1,905 Descending Northern Cal TRACON
Sun 11:26:42 PM 37.6333 -120.9667 260° West 368 423 21,100 -1,900 Descending Northern Cal TRACON
Sun 11:27:42 PM 37.6167 -121.1000 261° West 356 410 19,100 -1,900 Descending Northern Cal TRACON
Sun 11:28:42 PM 37.6000 -121.2167 260° West 344 396 17,300 -1,750 Descending Northern Cal TRACON
Sun 11:29:42 PM 37.5833 -121.3167 258° West 332 382 15,600 -1,700 Descending Northern Cal TRACON
Sun 11:30:42 PM 37.5667 -121.4333 260° West 320 368 13,900 -1,700 Descending Northern Cal TRACON
Sun 11:31:42 PM 37.5500 -121.5333 258° West 314 361 12,200 -1,400 Descending Northern Cal TRACON
Sun 11:32:42 PM 37.5167 -121.6333 247° West 294 338 11,100 -1,100 Descending Northern Cal TRACON
Sun 11:33:42 PM 37.5000 -121.7333 258° West 284 327 10,000 -905 Descending Northern Cal TRACON
Sun 11:34:48 PM 37.4833 -121.8167 256° West 251 289 9,200 -952 Descending Northern Cal TRACON
Sun 11:35:48 PM 37.4667 -121.9000 256° West 248 285 8,000 -789 Descending Northern Cal TRACON
Sun 11:36:42 PM 37.4833 -121.9833 284° West 222 255 7,700 -737 Descending Northern Cal TRACON
Sun 11:37:42 PM 37.5000 -122.0333 293° West 196 226 6,600 -1,150 Descending Northern Cal TRACON
Sun 11:38:42 PM 37.5333 -122.1000 302° West 187 215 5,400 -1,188 Descending Northern Cal TRACON
Sun 11:39:23 PM 37.5406 -122.1311 286° West 186 214 4,600 -1,353 Descending Oakland Center
Sun 11:40:24 PM 37.5589 -122.1864 293° West 175 201 3,100 -1,279 Descending Oakland Center
Sun 11:41:25 PM 37.5750 -122.2406 291° West 171 197 2,000 -984 Descending Oakland Center
Sun 11:42:26 PM 37.5850 -122.2931 284° West 161 185 1,100 -793 Descending Oakland Center
Sun 11:43:26 PM 37.5992 -122.3353 293° West 144 166 400 -700 Descending Oakland Center
Sun 11:46:00 PM 37.6167 -122.3667 322° Northwest  Level FlightAware Approximate

Login

Don't have an account? Register now (free) for customized features, flight alerts, and more!